sensor_id;sensor_type;location;lat;lon;timestamp;temperature;humidity
46676;DHT22;32412;51.478;5.694;2024-01-27T00:01:12;2.20;99.90
46676;DHT22;32412;51.478;5.694;2024-01-27T00:10:01;2.00;99.90
46676;DHT22;32412;51.478;5.694;2024-01-27T00:12:55;2.10;99.90
46676;DHT22;32412;51.478;5.694;2024-01-27T00:18:52;2.20;99.90
46676;DHT22;32412;51.478;5.694;2024-01-27T00:21:29;2.10;99.90
46676;DHT22;32412;51.478;5.694;2024-01-27T00:27:43;2.20;99.90
46676;DHT22;32412;51.478;5.694;2024-01-27T00:30:40;2.10;99.90
46676;DHT22;32412;51.478;5.694;2024-01-27T00:33:25;2.10;99.90
46676;DHT22;32412;51.478;5.694;2024-01-27T00:36:25;2.00;99.90
46676;DHT22;32412;51.478;5.694;2024-01-27T00:42:27;2.00;99.90
46676;DHT22;32412;51.478;5.694;2024-01-27T00:45:12;1.90;99.90
46676;DHT22;32412;51.478;5.694;2024-01-27T00:48:11;1.90;99.90
46676;DHT22;32412;51.478;5.694;2024-01-27T00:50:57;1.70;99.90
46676;DHT22;32412;51.478;5.694;2024-01-27T00:53:46;1.70;99.90
46676;DHT22;32412;51.478;5.694;2024-01-27T00:56:40;1.70;99.90
46676;DHT22;32412;51.478;5.694;2024-01-27T01:08:29;1.40;99.90
46676;DHT22;32412;51.478;5.694;2024-01-27T01:11:37;1.40;99.90
46676;DHT22;32412;51.478;5.694;2024-01-27T01:14:21;1.40;99.90
46676;DHT22;32412;51.478;5.694;2024-01-27T01:17:16;1.30;99.90
46676;DHT22;32412;51.478;5.694;2024-01-27T01:20:19;1.40;99.90
46676;DHT22;32412;51.478;5.694;2024-01-27T01:23:00;1.40;99.90
46676;DHT22;32412;51.478;5.694;2024-01-27T01:28:35;1.30;99.90
46676;DHT22;32412;51.478;5.694;2024-01-27T01:31:10;1.30;99.90
46676;DHT22;32412;51.478;5.694;2024-01-27T01:34:07;1.30;99.90
46676;DHT22;32412;51.478;5.694;2024-01-27T01:36:37;1.30;99.90
46676;DHT22;32412;51.478;5.694;2024-01-27T01:39:06;1.30;99.90
46676;DHT22;32412;51.478;5.694;2024-01-27T01:41:41;1.20;99.90
46676;DHT22;32412;51.478;5.694;2024-01-27T01:44:10;1.20;99.90
46676;DHT22;32412;51.478;5.694;2024-01-27T01:46:49;1.20;99.90
46676;DHT22;32412;51.478;5.694;2024-01-27T01:49:20;1.20;99.90
46676;DHT22;32412;51.478;5.694;2024-01-27T01:51:56;1.20;99.90
46676;DHT22;32412;51.478;5.694;2024-01-27T01:54:35;1.20;99.90
46676;DHT22;32412;51.478;5.694;2024-01-27T01:57:03;1.10;99.90
46676;DHT22;32412;51.478;5.694;2024-01-27T01:59:32;1.10;99.90
46676;DHT22;32412;51.478;5.694;2024-01-27T02:02:11;1.10;99.90
46676;DHT22;32412;51.478;5.694;2024-01-27T02:04:46;1.00;99.90
46676;DHT22;32412;51.478;5.694;2024-01-27T02:07:14;1.00;99.90
46676;DHT22;32412;51.478;5.694;2024-01-27T02:09:45;1.00;99.90
46676;DHT22;32412;51.478;5.694;2024-01-27T02:12:20;1.00;99.90
46676;DHT22;32412;51.478;5.694;2024-01-27T02:14:57;1.00;99.90
46676;DHT22;32412;51.478;5.694;2024-01-27T02:17:35;0.90;99.90
46676;DHT22;32412;51.478;5.694;2024-01-27T02:20:01;0.90;99.90
46676;DHT22;32412;51.478;5.694;2024-01-27T02:22:33;0.90;99.90
46676;DHT22;32412;51.478;5.694;2024-01-27T02:24:59;0.90;99.90
46676;DHT22;32412;51.478;5.694;2024-01-27T02:27:30;0.90;99.90
46676;DHT22;32412;51.478;5.694;2024-01-27T02:29:56;1.00;99.90
46676;DHT22;32412;51.478;5.694;2024-01-27T02:32:25;1.00;99.90
46676;DHT22;32412;51.478;5.694;2024-01-27T02:35:02;1.00;99.90
46676;DHT22;32412;51.478;5.694;2024-01-27T02:37:28;1.10;99.90
46676;DHT22;32412;51.478;5.694;2024-01-27T02:39:57;1.10;99.90
46676;DHT22;32412;51.478;5.694;2024-01-27T02:42:28;1.10;99.90
46676;DHT22;32412;51.478;5.694;2024-01-27T02:45:02;1.20;99.90
46676;DHT22;32412;51.478;5.694;2024-01-27T02:47:34;1.20;99.90
46676;DHT22;32412;51.478;5.694;2024-01-27T02:50:16;1.20;99.90
46676;DHT22;32412;51.478;5.694;2024-01-27T02:53:11;1.20;99.90
46676;DHT22;32412;51.478;5.694;2024-01-27T02:55:39;1.20;99.90
46676;DHT22;32412;51.478;5.694;2024-01-27T02:58:13;1.20;99.90
46676;DHT22;32412;51.478;5.694;2024-01-27T03:00:41;1.30;99.90
46676;DHT22;32412;51.478;5.694;2024-01-27T03:03:15;1.20;99.90
46676;DHT22;32412;51.478;5.694;2024-01-27T03:05:44;1.10;99.90
46676;DHT22;32412;51.478;5.694;2024-01-27T03:08:13;1.20;99.90
46676;DHT22;32412;51.478;5.694;2024-01-27T03:10:39;1.20;99.90
46676;DHT22;32412;51.478;5.694;2024-01-27T03:13:05;1.20;99.90
46676;DHT22;32412;51.478;5.694;2024-01-27T03:15:46;1.10;99.90
46676;DHT22;32412;51.478;5.694;2024-01-27T03:18:18;1.10;99.90
46676;DHT22;32412;51.478;5.694;2024-01-27T03:20:54;1.00;99.90
46676;DHT22;32412;51.478;5.694;2024-01-27T03:26:06;1.00;99.90
46676;DHT22;32412;51.478;5.694;2024-01-27T03:28:34;0.90;99.90
46676;DHT22;32412;51.478;5.694;2024-01-27T03:31:17;0.90;99.90
46676;DHT22;32412;51.478;5.694;2024-01-27T03:33:48;0.90;99.90
46676;DHT22;32412;51.478;5.694;2024-01-27T03:36:27;0.80;99.90
46676;DHT22;32412;51.478;5.694;2024-01-27T03:39:23;0.80;99.90
46676;DHT22;32412;51.478;5.694;2024-01-27T03:48:49;0.70;99.90
46676;DHT22;32412;51.478;5.694;2024-01-27T03:51:27;0.70;99.90
46676;DHT22;32412;51.478;5.694;2024-01-27T03:54:07;0.60;99.90
46676;DHT22;32412;51.478;5.694;2024-01-27T03:56:43;0.70;99.90
46676;DHT22;32412;51.478;5.694;2024-01-27T03:59:42;0.70;99.90
46676;DHT22;32412;51.478;5.694;2024-01-27T04:02:29;0.70;99.90
46676;DHT22;32412;51.478;5.694;2024-01-27T04:05:08;0.70;99.90
46676;DHT22;32412;51.478;5.694;2024-01-27T04:07:48;0.70;99.90
46676;DHT22;32412;51.478;5.694;2024-01-27T04:10:40;0.80;99.90
46676;DHT22;32412;51.478;5.694;2024-01-27T04:13:09;0.70;99.90
46676;DHT22;32412;51.478;5.694;2024-01-27T04:15:47;0.70;99.90
46676;DHT22;32412;51.478;5.694;2024-01-27T04:18:46;0.70;99.90
46676;DHT22;32412;51.478;5.694;2024-01-27T04:21:15;0.60;99.90
46676;DHT22;32412;51.478;5.694;2024-01-27T04:37:06;0.60;99.90
46676;DHT22;32412;51.478;5.694;2024-01-27T04:43:55;0.60;99.90
46676;DHT22;32412;51.478;5.694;2024-01-27T04:50:27;0.50;99.90
46676;DHT22;32412;51.478;5.694;2024-01-27T08:45:13;1.40;99.90
46676;DHT22;32412;51.478;5.694;2024-01-27T08:59:04;1.80;99.90
46676;DHT22;32412;51.478;5.694;2024-01-27T09:05:18;2.10;99.90
46676;DHT22;32412;51.478;5.694;2024-01-27T09:11:12;2.20;99.90
46676;DHT22;32412;51.478;5.694;2024-01-27T09:13:51;2.30;99.90
46676;DHT22;32412;51.478;5.694;2024-01-27T09:16:38;2.50;99.90
46676;DHT22;32412;51.478;5.694;2024-01-27T09:29:15;3.00;99.90
46676;DHT22;32412;51.478;5.694;2024-01-27T09:38:40;3.30;99.90
46676;DHT22;32412;51.478;5.694;2024-01-27T09:51:32;5.30;99.90
46676;DHT22;32412;51.478;5.694;2024-01-27T09:53:59;6.10;99.90
46676;DHT22;32412;51.478;5.694;2024-01-27T09:56:26;6.60;99.90
46676;DHT22;32412;51.478;5.694;2024-01-27T09:58:52;6.90;99.90
46676;DHT22;32412;51.478;5.694;2024-01-27T10:01:21;7.10;99.90
46676;DHT22;32412;51.478;5.694;2024-01-27T10:03:49;7.40;99.90
46676;DHT22;32412;51.478;5.694;2024-01-27T10:06:15;8.00;99.90
46676;DHT22;32412;51.478;5.694;2024-01-27T10:08:44;8.40;99.90
46676;DHT22;32412;51.478;5.694;2024-01-27T10:11:17;8.60;99.90
46676;DHT22;32412;51.478;5.694;2024-01-27T10:13:43;9.10;99.90
46676;DHT22;32412;51.478;5.694;2024-01-27T10:16:09;9.30;99.90
46676;DHT22;32412;51.478;5.694;2024-01-27T10:18:37;9.30;99.90
46676;DHT22;32412;51.478;5.694;2024-01-27T10:21:14;9.70;99.90
46676;DHT22;32412;51.478;5.694;2024-01-27T10:23:40;10.10;99.90
46676;DHT22;32412;51.478;5.694;2024-01-27T10:26:08;10.40;99.90
46676;DHT22;32412;51.478;5.694;2024-01-27T10:28:33;10.50;99.90
46676;DHT22;32412;51.478;5.694;2024-01-27T10:31:12;10.80;99.90
46676;DHT22;32412;51.478;5.694;2024-01-27T10:34:01;10.90;99.90
46676;DHT22;32412;51.478;5.694;2024-01-27T10:39:20;11.10;99.90
46676;DHT22;32412;51.478;5.694;2024-01-27T10:41:47;11.30;99.90
46676;DHT22;32412;51.478;5.694;2024-01-27T10:44:19;11.60;99.90
46676;DHT22;32412;51.478;5.694;2024-01-27T10:46:47;12.10;99.90
46676;DHT22;32412;51.478;5.694;2024-01-27T10:49:15;12.40;99.40
46676;DHT22;32412;51.478;5.694;2024-01-27T10:51:50;12.70;98.90
46676;DHT22;32412;51.478;5.694;2024-01-27T10:54:25;13.00;99.00
46676;DHT22;32412;51.478;5.694;2024-01-27T10:56:53;13.10;97.30
46676;DHT22;32412;51.478;5.694;2024-01-27T10:59:19;13.20;98.30
46676;DHT22;32412;51.478;5.694;2024-01-27T11:01:47;13.20;97.50
46676;DHT22;32412;51.478;5.694;2024-01-27T11:04:17;13.20;98.40
46676;DHT22;32412;51.478;5.694;2024-01-27T11:06:43;13.40;97.80
46676;DHT22;32412;51.478;5.694;2024-01-27T11:09:10;13.70;97.80
46676;DHT22;32412;51.478;5.694;2024-01-27T11:11:38;13.90;97.30
46676;DHT22;32412;51.478;5.694;2024-01-27T11:14:04;13.80;96.10
46676;DHT22;32412;51.478;5.694;2024-01-27T11:16:30;14.10;96.40
46676;DHT22;32412;51.478;5.694;2024-01-27T11:18:55;14.40;95.80
46676;DHT22;32412;51.478;5.694;2024-01-27T11:21:21;14.40;95.00
46676;DHT22;32412;51.478;5.694;2024-01-27T11:23:47;14.50;95.50
46676;DHT22;32412;51.478;5.694;2024-01-27T11:26:20;14.40;94.50
46676;DHT22;32412;51.478;5.694;2024-01-27T11:28:48;14.30;94.50
46676;DHT22;32412;51.478;5.694;2024-01-27T11:31:17;14.40;94.70
46676;DHT22;32412;51.478;5.694;2024-01-27T11:33:46;14.30;94.00
46676;DHT22;32412;51.478;5.694;2024-01-27T11:36:21;14.20;93.90
46676;DHT22;32412;51.478;5.694;2024-01-27T11:38:48;13.90;94.20
46676;DHT22;32412;51.478;5.694;2024-01-27T11:41:23;13.80;94.80
46676;DHT22;32412;51.478;5.694;2024-01-27T11:43:54;14.10;94.30
46676;DHT22;32412;51.478;5.694;2024-01-27T11:46:20;13.90;93.50
46676;DHT22;32412;51.478;5.694;2024-01-27T11:48:46;14.10;93.70
46676;DHT22;32412;51.478;5.694;2024-01-27T11:51:12;14.50;93.00
46676;DHT22;32412;51.478;5.694;2024-01-27T11:53:38;14.60;92.50
46676;DHT22;32412;51.478;5.694;2024-01-27T11:56:04;14.60;92.60
46676;DHT22;32412;51.478;5.694;2024-01-27T11:58:33;14.80;91.90
46676;DHT22;32412;51.478;5.694;2024-01-27T12:00:59;15.00;91.70
46676;DHT22;32412;51.478;5.694;2024-01-27T12:03:26;15.20;91.80
46676;DHT22;32412;51.478;5.694;2024-01-27T12:05:52;15.20;91.10
46676;DHT22;32412;51.478;5.694;2024-01-27T12:08:18;15.10;91.00
46676;DHT22;32412;51.478;5.694;2024-01-27T12:10:44;15.00;90.80
46676;DHT22;32412;51.478;5.694;2024-01-27T12:13:09;14.90;91.40
46676;DHT22;32412;51.478;5.694;2024-01-27T12:15:35;15.10;91.50
46676;DHT22;32412;51.478;5.694;2024-01-27T12:18:01;15.20;90.20
46676;DHT22;32412;51.478;5.694;2024-01-27T12:20:29;14.90;90.50
46676;DHT22;32412;51.478;5.694;2024-01-27T12:23:22;15.00;91.50
46676;DHT22;32412;51.478;5.694;2024-01-27T12:25:53;15.30;90.00
46676;DHT22;32412;51.478;5.694;2024-01-27T12:28:19;15.10;90.20
46676;DHT22;32412;51.478;5.694;2024-01-27T12:30:46;14.90;90.50
46676;DHT22;32412;51.478;5.694;2024-01-27T12:33:12;15.20;90.70
46676;DHT22;32412;51.478;5.694;2024-01-27T12:35:38;15.60;90.90
46676;DHT22;32412;51.478;5.694;2024-01-27T12:38:05;16.10;88.80
46676;DHT22;32412;51.478;5.694;2024-01-27T12:40:31;15.90;87.20
46676;DHT22;32412;51.478;5.694;2024-01-27T12:42:57;16.00;87.00
46676;DHT22;32412;51.478;5.694;2024-01-27T12:45:23;15.90;86.50
46676;DHT22;32412;51.478;5.694;2024-01-27T12:47:49;15.90;86.90
46676;DHT22;32412;51.478;5.694;2024-01-27T12:50:15;15.80;86.10
46676;DHT22;32412;51.478;5.694;2024-01-27T12:52:42;15.60;86.00
46676;DHT22;32412;51.478;5.694;2024-01-27T12:55:08;15.60;86.90
46676;DHT22;32412;51.478;5.694;2024-01-27T12:57:34;15.50;87.20
46676;DHT22;32412;51.478;5.694;2024-01-27T13:00:00;14.80;85.90
46676;DHT22;32412;51.478;5.694;2024-01-27T13:02:25;14.30;88.00
46676;DHT22;32412;51.478;5.694;2024-01-27T13:04:51;14.10;89.90
46676;DHT22;32412;51.478;5.694;2024-01-27T13:07:21;13.90;90.30
46676;DHT22;32412;51.478;5.694;2024-01-27T13:19:58;11.00;93.30
46676;DHT22;32412;51.478;5.694;2024-01-27T13:25:50;10.50;94.50
46676;DHT22;32412;51.478;5.694;2024-01-27T13:28:20;10.50;94.40
46676;DHT22;32412;51.478;5.694;2024-01-27T18:29:41;3.30;99.90
46676;DHT22;32412;51.478;5.694;2024-01-27T18:32:06;3.30;99.90
46676;DHT22;32412;51.478;5.694;2024-01-27T18:34:32;3.20;99.90
46676;DHT22;32412;51.478;5.694;2024-01-27T18:36:58;3.20;99.90
46676;DHT22;32412;51.478;5.694;2024-01-27T18:39:23;3.20;99.90
46676;DHT22;32412;51.478;5.694;2024-01-27T18:41:49;3.20;99.90
46676;DHT22;32412;51.478;5.694;2024-01-27T18:44:26;3.20;99.90
46676;DHT22;32412;51.478;5.694;2024-01-27T18:46:58;3.20;99.90
46676;DHT22;32412;51.478;5.694;2024-01-27T18:49:45;3.10;99.90
46676;DHT22;32412;51.478;5.694;2024-01-27T19:09:20;2.80;99.90
46676;DHT22;32412;51.478;5.694;2024-01-27T19:25:02;2.50;99.90
46676;DHT22;32412;51.478;5.694;2024-01-27T19:31:32;2.50;99.90
46676;DHT22;32412;51.478;5.694;2024-01-27T19:44:15;2.20;99.90
46676;DHT22;32412;51.478;5.694;2024-01-27T19:53:58;2.00;99.90
46676;DHT22;32412;51.478;5.694;2024-01-27T20:27:13;1.70;99.90
46676;DHT22;32412;51.478;5.694;2024-01-27T21:04:25;1.50;99.90
